sensor_id;sensor_type;location;lat;lon;timestamp;P1;durP1;ratioP1;P2;durP2;ratioP2
70444;SDS011;57902;49.638;11.070;2023-03-03T00:00:42;26.50;;;9.75;;
70444;SDS011;57902;49.638;11.070;2023-03-03T00:03:09;29.15;;;9.88;;
70444;SDS011;57902;49.638;11.070;2023-03-03T00:05:39;24.13;;;8.98;;
70444;SDS011;57902;49.638;11.070;2023-03-03T00:08:05;27.08;;;9.10;;
70444;SDS011;57902;49.638;11.070;2023-03-03T00:10:32;26.65;;;8.95;;
70444;SDS011;57902;49.638;11.070;2023-03-03T00:12:58;24.25;;;9.18;;
70444;SDS011;57902;49.638;11.070;2023-03-03T00:15:25;26.38;;;9.02;;
70444;SDS011;57902;49.638;11.070;2023-03-03T00:17:52;27.42;;;9.05;;
70444;SDS011;57902;49.638;11.070;2023-03-03T00:20:31;25.23;;;8.98;;
70444;SDS011;57902;49.638;11.070;2023-03-03T00:23:06;24.58;;;9.45;;
70444;SDS011;57902;49.638;11.070;2023-03-03T00:25:53;24.88;;;9.85;;
70444;SDS011;57902;49.638;11.070;2023-03-03T00:28:25;25.58;;;9.23;;
70444;SDS011;57902;49.638;11.070;2023-03-03T00:31:51;24.40;;;8.80;;
70444;SDS011;57902;49.638;11.070;2023-03-03T00:36:56;24.38;;;9.05;;
70444;SDS011;57902;49.638;11.070;2023-03-03T00:39:30;24.85;;;8.00;;
70444;SDS011;57902;49.638;11.070;2023-03-03T00:42:00;22.15;;;8.75;;
70444;SDS011;57902;49.638;11.070;2023-03-03T00:44:32;22.83;;;8.73;;
70444;SDS011;57902;49.638;11.070;2023-03-03T00:52:37;26.35;;;8.95;;
70444;SDS011;57902;49.638;11.070;2023-03-03T00:55:06;25.63;;;8.57;;
70444;SDS011;57902;49.638;11.070;2023-03-03T00:57:33;21.10;;;8.05;;
70444;SDS011;57902;49.638;11.070;2023-03-03T00:59:59;25.67;;;8.27;;
70444;SDS011;57902;49.638;11.070;2023-03-03T01:02:26;25.33;;;9.05;;
70444;SDS011;57902;49.638;11.070;2023-03-03T01:04:52;25.80;;;8.65;;
70444;SDS011;57902;49.638;11.070;2023-03-03T01:07:21;21.55;;;8.57;;
70444;SDS011;57902;49.638;11.070;2023-03-03T01:09:48;25.25;;;8.52;;
70444;SDS011;57902;49.638;11.070;2023-03-03T01:12:15;23.58;;;9.18;;
70444;SDS011;57902;49.638;11.070;2023-03-03T01:14:41;23.83;;;9.15;;
70444;SDS011;57902;49.638;11.070;2023-03-03T01:17:10;26.23;;;8.75;;
70444;SDS011;57902;49.638;11.070;2023-03-03T01:19:37;26.05;;;8.60;;
70444;SDS011;57902;49.638;11.070;2023-03-03T01:22:03;28.45;;;9.23;;
70444;SDS011;57902;49.638;11.070;2023-03-03T01:24:29;25.27;;;8.75;;
70444;SDS011;57902;49.638;11.070;2023-03-03T01:26:56;22.70;;;8.10;;
70444;SDS011;57902;49.638;11.070;2023-03-03T01:29:22;22.83;;;8.32;;
70444;SDS011;57902;49.638;11.070;2023-03-03T01:31:49;23.45;;;8.40;;
70444;SDS011;57902;49.638;11.070;2023-03-03T01:34:15;22.90;;;8.80;;
70444;SDS011;57902;49.638;11.070;2023-03-03T01:36:42;26.58;;;8.88;;
70444;SDS011;57902;49.638;11.070;2023-03-03T01:39:09;21.73;;;7.95;;
70444;SDS011;57902;49.638;11.070;2023-03-03T01:41:36;24.60;;;8.77;;
70444;SDS011;57902;49.638;11.070;2023-03-03T01:44:03;24.38;;;8.38;;
70444;SDS011;57902;49.638;11.070;2023-03-03T01:49:38;22.90;;;8.45;;
70444;SDS011;57902;49.638;11.070;2023-03-03T01:52:25;24.80;;;7.82;;
70444;SDS011;57902;49.638;11.070;2023-03-03T01:55:00;24.23;;;8.18;;
70444;SDS011;57902;49.638;11.070;2023-03-03T01:57:34;23.98;;;7.80;;
70444;SDS011;57902;49.638;11.070;2023-03-03T02:00:06;22.38;;;8.45;;
70444;SDS011;57902;49.638;11.070;2023-03-03T02:02:33;23.10;;;7.97;;
70444;SDS011;57902;49.638;11.070;2023-03-03T02:05:01;22.33;;;7.63;;
70444;SDS011;57902;49.638;11.070;2023-03-03T02:07:27;20.42;;;7.60;;
70444;SDS011;57902;49.638;11.070;2023-03-03T02:12:35;21.23;;;7.95;;
70444;SDS011;57902;49.638;11.070;2023-03-03T02:18:19;21.38;;;7.60;;
70444;SDS011;57902;49.638;11.070;2023-03-03T02:28:36;23.45;;;8.13;;
70444;SDS011;57902;49.638;11.070;2023-03-03T02:31:06;23.13;;;7.40;;
70444;SDS011;57902;49.638;11.070;2023-03-03T02:33:39;21.17;;;7.13;;
70444;SDS011;57902;49.638;11.070;2023-03-03T02:36:11;20.40;;;7.10;;
70444;SDS011;57902;49.638;11.070;2023-03-03T02:38:48;20.08;;;7.07;;
70444;SDS011;57902;49.638;11.070;2023-03-03T02:41:38;22.20;;;7.35;;
70444;SDS011;57902;49.638;11.070;2023-03-03T02:44:11;23.75;;;7.80;;
70444;SDS011;57902;49.638;11.070;2023-03-03T02:46:41;18.15;;;6.97;;
70444;SDS011;57902;49.638;11.070;2023-03-03T02:49:10;24.88;;;7.70;;
70444;SDS011;57902;49.638;11.070;2023-03-03T02:51:39;19.92;;;7.22;;
70444;SDS011;57902;49.638;11.070;2023-03-03T02:54:06;22.58;;;7.97;;
70444;SDS011;57902;49.638;11.070;2023-03-03T02:56:33;20.08;;;7.70;;
70444;SDS011;57902;49.638;11.070;2023-03-03T02:59:00;24.90;;;7.93;;
70444;SDS011;57902;49.638;11.070;2023-03-03T03:01:27;25.65;;;7.95;;
70444;SDS011;57902;49.638;11.070;2023-03-03T03:03:57;19.73;;;7.63;;
70444;SDS011;57902;49.638;11.070;2023-03-03T03:06:24;20.38;;;6.90;;
70444;SDS011;57902;49.638;11.070;2023-03-03T03:08:50;26.13;;;7.45;;
70444;SDS011;57902;49.638;11.070;2023-03-03T03:11:17;25.15;;;7.95;;
70444;SDS011;57902;49.638;11.070;2023-03-03T03:13:43;22.70;;;7.35;;
70444;SDS011;57902;49.638;11.070;2023-03-03T03:16:10;25.75;;;7.35;;
70444;SDS011;57902;49.638;11.070;2023-03-03T03:18:36;19.58;;;7.28;;
70444;SDS011;57902;49.638;11.070;2023-03-03T03:21:07;21.10;;;7.13;;
70444;SDS011;57902;49.638;11.070;2023-03-03T03:23:38;25.65;;;7.97;;
70444;SDS011;57902;49.638;11.070;2023-03-03T03:26:05;20.20;;;7.70;;
70444;SDS011;57902;49.638;11.070;2023-03-03T03:28:33;24.92;;;7.55;;
70444;SDS011;57902;49.638;11.070;2023-03-03T03:31:00;25.65;;;8.15;;
70444;SDS011;57902;49.638;11.070;2023-03-03T03:33:27;20.60;;;7.82;;
70444;SDS011;57902;49.638;11.070;2023-03-03T03:35:54;21.92;;;8.05;;
70444;SDS011;57902;49.638;11.070;2023-03-03T03:38:22;23.58;;;7.95;;
70444;SDS011;57902;49.638;11.070;2023-03-03T03:40:49;26.58;;;8.57;;
70444;SDS011;57902;49.638;11.070;2023-03-03T03:43:16;22.27;;;8.02;;
70444;SDS011;57902;49.638;11.070;2023-03-03T03:45:42;23.02;;;8.07;;
70444;SDS011;57902;49.638;11.070;2023-03-03T03:48:09;23.95;;;7.32;;
70444;SDS011;57902;49.638;11.070;2023-03-03T03:50:36;23.70;;;8.07;;
70444;SDS011;57902;49.638;11.070;2023-03-03T03:53:04;26.55;;;8.43;;
70444;SDS011;57902;49.638;11.070;2023-03-03T03:55:31;24.70;;;8.65;;
70444;SDS011;57902;49.638;11.070;2023-03-03T03:57:58;21.83;;;7.70;;
70444;SDS011;57902;49.638;11.070;2023-03-03T04:00:24;21.15;;;7.13;;
70444;SDS011;57902;49.638;11.070;2023-03-03T04:02:51;21.83;;;7.47;;
70444;SDS011;57902;49.638;11.070;2023-03-03T04:05:18;22.75;;;8.00;;
70444;SDS011;57902;49.638;11.070;2023-03-03T04:07:45;28.63;;;7.82;;
70444;SDS011;57902;49.638;11.070;2023-03-03T04:10:12;29.27;;;8.25;;
70444;SDS011;57902;49.638;11.070;2023-03-03T04:15:12;23.77;;;7.60;;
70444;SDS011;57902;49.638;11.070;2023-03-03T04:17:39;23.45;;;7.97;;
70444;SDS011;57902;49.638;11.070;2023-03-03T04:20:08;22.73;;;7.72;;
70444;SDS011;57902;49.638;11.070;2023-03-03T04:22:39;24.92;;;8.20;;
70444;SDS011;57902;49.638;11.070;2023-03-03T04:25:05;22.80;;;8.65;;
70444;SDS011;57902;49.638;11.070;2023-03-03T04:27:33;24.15;;;8.25;;
70444;SDS011;57902;49.638;11.070;2023-03-03T04:30:00;23.05;;;8.63;;
70444;SDS011;57902;49.638;11.070;2023-03-03T04:32:27;24.20;;;8.20;;
70444;SDS011;57902;49.638;11.070;2023-03-03T04:34:54;24.90;;;8.02;;
70444;SDS011;57902;49.638;11.070;2023-03-03T04:37:32;24.92;;;8.90;;
70444;SDS011;57902;49.638;11.070;2023-03-03T04:39:59;22.52;;;8.27;;
70444;SDS011;57902;49.638;11.070;2023-03-03T04:42:25;21.52;;;7.75;;
70444;SDS011;57902;49.638;11.070;2023-03-03T04:44:53;25.75;;;8.05;;
70444;SDS011;57902;49.638;11.070;2023-03-03T04:47:20;28.77;;;9.52;;
70444;SDS011;57902;49.638;11.070;2023-03-03T04:49:46;22.60;;;8.40;;
70444;SDS011;57902;49.638;11.070;2023-03-03T04:52:13;29.60;;;8.43;;
70444;SDS011;57902;49.638;11.070;2023-03-03T04:54:39;31.27;;;8.43;;
70444;SDS011;57902;49.638;11.070;2023-03-03T04:57:06;24.58;;;8.20;;
70444;SDS011;57902;49.638;11.070;2023-03-03T04:59:34;25.50;;;8.02;;
70444;SDS011;57902;49.638;11.070;2023-03-03T05:02:01;27.52;;;8.05;;
70444;SDS011;57902;49.638;11.070;2023-03-03T05:04:30;25.65;;;7.95;;
70444;SDS011;57902;49.638;11.070;2023-03-03T05:06:57;29.70;;;8.55;;
70444;SDS011;57902;49.638;11.070;2023-03-03T05:09:23;25.73;;;8.15;;
70444;SDS011;57902;49.638;11.070;2023-03-03T05:11:49;25.02;;;8.02;;
70444;SDS011;57902;49.638;11.070;2023-03-03T05:14:16;28.20;;;8.35;;
70444;SDS011;57902;49.638;11.070;2023-03-03T05:16:43;20.75;;;7.30;;
70444;SDS011;57902;49.638;11.070;2023-03-03T05:19:09;21.80;;;8.45;;
70444;SDS011;57902;49.638;11.070;2023-03-03T05:21:36;28.90;;;8.35;;
70444;SDS011;57902;49.638;11.070;2023-03-03T05:24:03;26.42;;;8.55;;
70444;SDS011;57902;49.638;11.070;2023-03-03T05:26:29;25.95;;;8.50;;
70444;SDS011;57902;49.638;11.070;2023-03-03T05:28:56;28.63;;;9.23;;
70444;SDS011;57902;49.638;11.070;2023-03-03T05:31:22;31.55;;;10.18;;
70444;SDS011;57902;49.638;11.070;2023-03-03T05:33:49;30.98;;;9.65;;
70444;SDS011;57902;49.638;11.070;2023-03-03T05:36:15;25.73;;;9.30;;
70444;SDS011;57902;49.638;11.070;2023-03-03T05:38:42;29.73;;;10.15;;
70444;SDS011;57902;49.638;11.070;2023-03-03T05:41:08;29.05;;;9.77;;
70444;SDS011;57902;49.638;11.070;2023-03-03T05:43:35;29.80;;;9.73;;
70444;SDS011;57902;49.638;11.070;2023-03-03T05:46:01;32.38;;;9.75;;
70444;SDS011;57902;49.638;11.070;2023-03-03T05:48:28;29.55;;;9.52;;
70444;SDS011;57902;49.638;11.070;2023-03-03T05:50:58;32.13;;;9.90;;
70444;SDS011;57902;49.638;11.070;2023-03-03T05:53:26;31.67;;;10.25;;
70444;SDS011;57902;49.638;11.070;2023-03-03T05:55:53;28.48;;;9.95;;
70444;SDS011;57902;49.638;11.070;2023-03-03T05:58:20;32.22;;;10.55;;
70444;SDS011;57902;49.638;11.070;2023-03-03T06:00:47;32.45;;;10.73;;
70444;SDS011;57902;49.638;11.070;2023-03-03T06:03:13;35.30;;;10.82;;
70444;SDS011;57902;49.638;11.070;2023-03-03T06:05:40;35.40;;;10.63;;
70444;SDS011;57902;49.638;11.070;2023-03-03T06:08:07;34.70;;;10.25;;
70444;SDS011;57902;49.638;11.070;2023-03-03T06:10:34;37.38;;;11.77;;
70444;SDS011;57902;49.638;11.070;2023-03-03T06:13:01;33.78;;;11.52;;
70444;SDS011;57902;49.638;11.070;2023-03-03T06:15:27;41.72;;;13.35;;
70444;SDS011;57902;49.638;11.070;2023-03-03T06:17:54;37.22;;;11.65;;
70444;SDS011;57902;49.638;11.070;2023-03-03T06:20:20;39.75;;;13.40;;
70444;SDS011;57902;49.638;11.070;2023-03-03T06:22:47;46.53;;;13.82;;
70444;SDS011;57902;49.638;11.070;2023-03-03T06:25:13;34.10;;;11.40;;
70444;SDS011;57902;49.638;11.070;2023-03-03T06:27:40;35.42;;;11.98;;
70444;SDS011;57902;49.638;11.070;2023-03-03T06:30:06;33.15;;;10.82;;
70444;SDS011;57902;49.638;11.070;2023-03-03T06:32:33;35.70;;;10.82;;
70444;SDS011;57902;49.638;11.070;2023-03-03T06:37:29;28.50;;;10.63;;
70444;SDS011;57902;49.638;11.070;2023-03-03T06:39:56;34.65;;;11.73;;
70444;SDS011;57902;49.638;11.070;2023-03-03T06:42:22;54.45;;;17.98;;
70444;SDS011;57902;49.638;11.070;2023-03-03T06:44:49;45.85;;;14.20;;
70444;SDS011;57902;49.638;11.070;2023-03-03T06:47:16;36.92;;;11.93;;
70444;SDS011;57902;49.638;11.070;2023-03-03T06:49:42;43.33;;;14.50;;
70444;SDS011;57902;49.638;11.070;2023-03-03T06:52:14;37.90;;;11.95;;
70444;SDS011;57902;49.638;11.070;2023-03-03T06:54:47;39.60;;;13.13;;
70444;SDS011;57902;49.638;11.070;2023-03-03T06:57:16;38.05;;;12.75;;
70444;SDS011;57902;49.638;11.070;2023-03-03T06:59:49;33.40;;;12.23;;
70444;SDS011;57902;49.638;11.070;2023-03-03T07:02:18;34.63;;;11.77;;
70444;SDS011;57902;49.638;11.070;2023-03-03T07:04:46;38.22;;;13.20;;
70444;SDS011;57902;49.638;11.070;2023-03-03T07:07:17;37.67;;;12.70;;
70444;SDS011;57902;49.638;11.070;2023-03-03T07:09:44;40.55;;;13.55;;
70444;SDS011;57902;49.638;11.070;2023-03-03T07:12:21;38.95;;;13.25;;
70444;SDS011;57902;49.638;11.070;2023-03-03T07:14:54;41.47;;;14.48;;
70444;SDS011;57902;49.638;11.070;2023-03-03T07:17:46;46.28;;;14.98;;
70444;SDS011;57902;49.638;11.070;2023-03-03T07:20:20;39.35;;;13.38;;
70444;SDS011;57902;49.638;11.070;2023-03-03T07:22:49;36.88;;;14.27;;
70444;SDS011;57902;49.638;11.070;2023-03-03T07:30:47;38.20;;;13.30;;
70444;SDS011;57902;49.638;11.070;2023-03-03T07:33:18;35.72;;;12.95;;
70444;SDS011;57902;49.638;11.070;2023-03-03T07:35:48;41.22;;;14.38;;
70444;SDS011;57902;49.638;11.070;2023-03-03T07:38:22;42.30;;;16.30;;
70444;SDS011;57902;49.638;11.070;2023-03-03T07:40:56;40.92;;;15.45;;
70444;SDS011;57902;49.638;11.070;2023-03-03T07:43:33;39.20;;;15.25;;
70444;SDS011;57902;49.638;11.070;2023-03-03T07:48:40;40.95;;;15.05;;
70444;SDS011;57902;49.638;11.070;2023-03-03T07:51:12;46.63;;;16.13;;
70444;SDS011;57902;49.638;11.070;2023-03-03T07:53:47;42.28;;;14.70;;
70444;SDS011;57902;49.638;11.070;2023-03-03T07:56:26;42.00;;;15.55;;
70444;SDS011;57902;49.638;11.070;2023-03-03T07:58:59;40.22;;;15.68;;
70444;SDS011;57902;49.638;11.070;2023-03-03T08:01:40;43.05;;;15.48;;
70444;SDS011;57902;49.638;11.070;2023-03-03T08:04:19;41.35;;;15.35;;
70444;SDS011;57902;49.638;11.070;2023-03-03T08:06:51;36.00;;;13.98;;
70444;SDS011;57902;49.638;11.070;2023-03-03T08:09:29;37.78;;;15.13;;
70444;SDS011;57902;49.638;11.070;2023-03-03T08:14:35;36.75;;;14.48;;
70444;SDS011;57902;49.638;11.070;2023-03-03T08:17:12;37.20;;;15.07;;
70444;SDS011;57902;49.638;11.070;2023-03-03T08:19:44;36.75;;;14.20;;
70444;SDS011;57902;49.638;11.070;2023-03-03T08:22:12;36.22;;;14.80;;
70444;SDS011;57902;49.638;11.070;2023-03-03T08:24:42;36.10;;;14.52;;
70444;SDS011;57902;49.638;11.070;2023-03-03T08:27:09;32.08;;;13.32;;
70444;SDS011;57902;49.638;11.070;2023-03-03T08:29:35;39.00;;;14.48;;
70444;SDS011;57902;49.638;11.070;2023-03-03T08:32:02;37.38;;;13.43;;
70444;SDS011;57902;49.638;11.070;2023-03-03T08:34:28;36.92;;;13.60;;
70444;SDS011;57902;49.638;11.070;2023-03-03T08:36:55;35.70;;;13.75;;
70444;SDS011;57902;49.638;11.070;2023-03-03T08:41:50;33.00;;;12.90;;
70444;SDS011;57902;49.638;11.070;2023-03-03T08:44:16;34.85;;;14.18;;
70444;SDS011;57902;49.638;11.070;2023-03-03T08:46:44;32.72;;;13.75;;
70444;SDS011;57902;49.638;11.070;2023-03-03T08:49:11;40.88;;;15.10;;
70444;SDS011;57902;49.638;11.070;2023-03-03T08:51:38;34.97;;;13.05;;
70444;SDS011;57902;49.638;11.070;2023-03-03T08:54:05;34.10;;;13.77;;
70444;SDS011;57902;49.638;11.070;2023-03-03T08:56:31;34.83;;;13.65;;
70444;SDS011;57902;49.638;11.070;2023-03-03T08:58:58;32.05;;;13.75;;
70444;SDS011;57902;49.638;11.070;2023-03-03T09:01:28;32.50;;;12.63;;
70444;SDS011;57902;49.638;11.070;2023-03-03T09:03:56;33.83;;;13.70;;
70444;SDS011;57902;49.638;11.070;2023-03-03T09:06:23;36.50;;;14.00;;
70444;SDS011;57902;49.638;11.070;2023-03-03T09:08:50;38.65;;;13.13;;
70444;SDS011;57902;49.638;11.070;2023-03-03T09:11:18;29.65;;;13.10;;
70444;SDS011;57902;49.638;11.070;2023-03-03T09:13:58;32.15;;;13.35;;
70444;SDS011;57902;49.638;11.070;2023-03-03T09:16:38;29.35;;;12.90;;
70444;SDS011;57902;49.638;11.070;2023-03-03T09:21:55;30.73;;;13.35;;
70444;SDS011;57902;49.638;11.070;2023-03-03T09:24:25;28.25;;;12.88;;
70444;SDS011;57902;49.638;11.070;2023-03-03T09:26:57;36.85;;;13.02;;
70444;SDS011;57902;49.638;11.070;2023-03-03T09:29:25;30.27;;;13.10;;
70444;SDS011;57902;49.638;11.070;2023-03-03T09:31:56;32.97;;;12.85;;
70444;SDS011;57902;49.638;11.070;2023-03-03T09:37:12;28.10;;;12.77;;
70444;SDS011;57902;49.638;11.070;2023-03-03T09:39:53;30.52;;;13.35;;
70444;SDS011;57902;49.638;11.070;2023-03-03T09:42:37;28.23;;;11.90;;
70444;SDS011;57902;49.638;11.070;2023-03-03T09:45:22;28.25;;;11.60;;
70444;SDS011;57902;49.638;11.070;2023-03-03T09:51:25;27.63;;;11.48;;
70444;SDS011;57902;49.638;11.070;2023-03-03T09:54:38;28.05;;;11.70;;
70444;SDS011;57902;49.638;11.070;2023-03-03T09:57:16;26.63;;;11.25;;
70444;SDS011;57902;49.638;11.070;2023-03-03T10:08:01;29.02;;;10.77;;
70444;SDS011;57902;49.638;11.070;2023-03-03T10:10:38;28.15;;;10.07;;
70444;SDS011;57902;49.638;11.070;2023-03-03T10:15:57;27.55;;;10.88;;
70444;SDS011;57902;49.638;11.070;2023-03-03T10:18:48;28.90;;;11.52;;
70444;SDS011;57902;49.638;11.070;2023-03-03T10:21:39;26.80;;;10.45;;
70444;SDS011;57902;49.638;11.070;2023-03-03T10:24:16;23.88;;;9.60;;
70444;SDS011;57902;49.638;11.070;2023-03-03T10:43:27;21.83;;;9.57;;
70444;SDS011;57902;49.638;11.070;2023-03-03T10:46:20;25.55;;;9.90;;
70444;SDS011;57902;49.638;11.070;2023-03-03T10:52:27;24.10;;;9.35;;
70444;SDS011;57902;49.638;11.070;2023-03-03T11:00:40;23.73;;;9.40;;
70444;SDS011;57902;49.638;11.070;2023-03-03T11:03:37;26.55;;;9.82;;
70444;SDS011;57902;49.638;11.070;2023-03-03T11:06:28;21.88;;;8.73;;
70444;SDS011;57902;49.638;11.070;2023-03-03T11:12:14;21.60;;;8.43;;
70444;SDS011;57902;49.638;11.070;2023-03-03T11:15:15;22.42;;;8.93;;
70444;SDS011;57902;49.638;11.070;2023-03-03T11:34:18;23.67;;;8.88;;
70444;SDS011;57902;49.638;11.070;2023-03-03T11:36:50;20.77;;;8.40;;
70444;SDS011;57902;49.638;11.070;2023-03-03T11:39:23;21.90;;;8.63;;
70444;SDS011;57902;49.638;11.070;2023-03-03T11:44:48;20.50;;;8.07;;
70444;SDS011;57902;49.638;11.070;2023-03-03T11:47:39;21.90;;;8.80;;
70444;SDS011;57902;49.638;11.070;2023-03-03T11:50:20;19.05;;;7.82;;
70444;SDS011;57902;49.638;11.070;2023-03-03T11:55:56;21.90;;;7.40;;
70444;SDS011;57902;49.638;11.070;2023-03-03T11:58:30;21.98;;;7.97;;
70444;SDS011;57902;49.638;11.070;2023-03-03T12:01:21;20.73;;;7.53;;
70444;SDS011;57902;49.638;11.070;2023-03-03T12:04:03;18.80;;;6.95;;
70444;SDS011;57902;49.638;11.070;2023-03-03T12:09:49;19.50;;;6.78;;
70444;SDS011;57902;49.638;11.070;2023-03-03T12:12:41;21.80;;;8.45;;
70444;SDS011;57902;49.638;11.070;2023-03-03T12:18:20;21.65;;;8.05;;
70444;SDS011;57902;49.638;11.070;2023-03-03T12:21:33;18.75;;;7.53;;
70444;SDS011;57902;49.638;11.070;2023-03-03T12:24:20;24.02;;;7.90;;
70444;SDS011;57902;49.638;11.070;2023-03-03T12:30:19;20.92;;;7.45;;
70444;SDS011;57902;49.638;11.070;2023-03-03T12:33:26;19.75;;;8.23;;
70444;SDS011;57902;49.638;11.070;2023-03-03T12:45:08;18.85;;;7.60;;
70444;SDS011;57902;49.638;11.070;2023-03-03T12:47:39;21.80;;;8.27;;
70444;SDS011;57902;49.638;11.070;2023-03-03T12:50:35;20.73;;;8.25;;
70444;SDS011;57902;49.638;11.070;2023-03-03T12:53:13;22.00;;;7.80;;
70444;SDS011;57902;49.638;11.070;2023-03-03T12:58:22;19.20;;;7.88;;
70444;SDS011;57902;49.638;11.070;2023-03-03T13:01:20;18.30;;;7.22;;
70444;SDS011;57902;49.638;11.070;2023-03-03T13:07:04;18.67;;;7.20;;
70444;SDS011;57902;49.638;11.070;2023-03-03T13:12:31;20.92;;;8.00;;
70444;SDS011;57902;49.638;11.070;2023-03-03T13:20:54;22.85;;;7.65;;
70444;SDS011;57902;49.638;11.070;2023-03-03T13:26:10;19.25;;;7.22;;
70444;SDS011;57902;49.638;11.070;2023-03-03T13:31:35;18.55;;;7.32;;
70444;SDS011;57902;49.638;11.070;2023-03-03T13:34:07;19.10;;;7.00;;
70444;SDS011;57902;49.638;11.070;2023-03-03T13:37:04;16.80;;;6.85;;
70444;SDS011;57902;49.638;11.070;2023-03-03T13:39:39;20.23;;;7.53;;
70444;SDS011;57902;49.638;11.070;2023-03-03T13:42:31;19.33;;;7.25;;
70444;SDS011;57902;49.638;11.070;2023-03-03T13:51:36;17.83;;;6.70;;
70444;SDS011;57902;49.638;11.070;2023-03-03T13:54:08;17.13;;;6.22;;
70444;SDS011;57902;49.638;11.070;2023-03-03T13:59:34;15.65;;;6.38;;
70444;SDS011;57902;49.638;11.070;2023-03-03T14:02:35;18.67;;;7.00;;
70444;SDS011;57902;49.638;11.070;2023-03-03T14:13:54;18.80;;;7.10;;
70444;SDS011;57902;49.638;11.070;2023-03-03T14:19:04;17.27;;;6.78;;
70444;SDS011;57902;49.638;11.070;2023-03-03T14:24:14;20.08;;;6.32;;
70444;SDS011;57902;49.638;11.070;2023-03-03T14:31:51;16.13;;;6.47;;
70444;SDS011;57902;49.638;11.070;2023-03-03T14:34:36;19.25;;;6.03;;
70444;SDS011;57902;49.638;11.070;2023-03-03T14:37:18;17.77;;;6.32;;
70444;SDS011;57902;49.638;11.070;2023-03-03T14:40:34;17.65;;;7.05;;
70444;SDS011;57902;49.638;11.070;2023-03-03T14:42:48;19.08;;;6.82;;
70444;SDS011;57902;49.638;11.070;2023-03-03T14:45:31;16.60;;;6.35;;
70444;SDS011;57902;49.638;11.070;2023-03-03T14:47:58;15.65;;;5.65;;
70444;SDS011;57902;49.638;11.070;2023-03-03T14:53:10;17.73;;;6.00;;
70444;SDS011;57902;49.638;11.070;2023-03-03T15:01:13;15.27;;;6.03;;
70444;SDS011;57902;49.638;11.070;2023-03-03T15:03:57;17.73;;;5.78;;
70444;SDS011;57902;49.638;11.070;2023-03-03T15:12:22;15.30;;;5.90;;
70444;SDS011;57902;49.638;11.070;2023-03-03T15:14:52;17.17;;;6.28;;
70444;SDS011;57902;49.638;11.070;2023-03-03T15:17:52;15.45;;;5.60;;
70444;SDS011;57902;49.638;11.070;2023-03-03T15:20:37;16.48;;;5.60;;
70444;SDS011;57902;49.638;11.070;2023-03-03T15:23:17;13.93;;;5.50;;
70444;SDS011;57902;49.638;11.070;2023-03-03T15:26:07;13.98;;;5.70;;
70444;SDS011;57902;49.638;11.070;2023-03-03T15:44:47;15.35;;;5.28;;
70444;SDS011;57902;49.638;11.070;2023-03-03T15:55:39;17.05;;;5.70;;
70444;SDS011;57902;49.638;11.070;2023-03-03T16:01:09;16.70;;;5.38;;
70444;SDS011;57902;49.638;11.070;2023-03-03T16:04:03;12.48;;;4.40;;
70444;SDS011;57902;49.638;11.070;2023-03-03T16:17:54;12.65;;;4.05;;
70444;SDS011;57902;49.638;11.070;2023-03-03T16:23:38;10.38;;;3.45;;
70444;SDS011;57902;49.638;11.070;2023-03-03T16:32:00;10.85;;;3.75;;
70444;SDS011;57902;49.638;11.070;2023-03-03T16:40:03;14.43;;;3.50;;
70444;SDS011;57902;49.638;11.070;2023-03-03T16:42:39;9.25;;;3.40;;
70444;SDS011;57902;49.638;11.070;2023-03-03T16:45:22;12.57;;;3.72;;
70444;SDS011;57902;49.638;11.070;2023-03-03T16:48:11;10.60;;;3.72;;
70444;SDS011;57902;49.638;11.070;2023-03-03T16:50:43;9.00;;;3.40;;
70444;SDS011;57902;49.638;11.070;2023-03-03T16:56:09;10.18;;;3.70;;
70444;SDS011;57902;49.638;11.070;2023-03-03T17:01:28;12.27;;;3.83;;
70444;SDS011;57902;49.638;11.070;2023-03-03T17:07:35;14.48;;;5.22;;
70444;SDS011;57902;49.638;11.070;2023-03-03T17:10:18;16.17;;;5.38;;
70444;SDS011;57902;49.638;11.070;2023-03-03T17:15:43;14.15;;;5.28;;
70444;SDS011;57902;49.638;11.070;2023-03-03T17:21:09;13.25;;;4.47;;
70444;SDS011;57902;49.638;11.070;2023-03-03T17:29:27;10.75;;;3.65;;
70444;SDS011;57902;49.638;11.070;2023-03-03T17:35:01;14.32;;;4.07;;
70444;SDS011;57902;49.638;11.070;2023-03-03T17:41:03;11.40;;;4.18;;
70444;SDS011;57902;49.638;11.070;2023-03-03T17:52:00;14.20;;;5.57;;
70444;SDS011;57902;49.638;11.070;2023-03-03T17:57:27;50.35;;;17.70;;
70444;SDS011;57902;49.638;11.070;2023-03-03T18:02:56;31.10;;;11.00;;
70444;SDS011;57902;49.638;11.070;2023-03-03T18:08:35;22.08;;;7.90;;
70444;SDS011;57902;49.638;11.070;2023-03-03T18:17:26;21.25;;;7.90;;
70444;SDS011;57902;49.638;11.070;2023-03-03T18:22:31;16.80;;;6.80;;
70444;SDS011;57902;49.638;11.070;2023-03-03T18:25:11;38.30;;;7.43;;
70444;SDS011;57902;49.638;11.070;2023-03-03T18:27:47;19.35;;;6.70;;
70444;SDS011;57902;49.638;11.070;2023-03-03T18:33:40;31.17;;;6.57;;
70444;SDS011;57902;49.638;11.070;2023-03-03T18:38:54;22.13;;;6.43;;
70444;SDS011;57902;49.638;11.070;2023-03-03T18:41:26;29.33;;;6.38;;
70444;SDS011;57902;49.638;11.070;2023-03-03T18:43:56;28.58;;;6.57;;
70444;SDS011;57902;49.638;11.070;2023-03-03T18:59:08;16.35;;;5.78;;
70444;SDS011;57902;49.638;11.070;2023-03-03T19:01:41;16.27;;;5.45;;
70444;SDS011;57902;49.638;11.070;2023-03-03T19:09:09;15.52;;;5.40;;
70444;SDS011;57902;49.638;11.070;2023-03-03T19:11:49;17.58;;;5.68;;
70444;SDS011;57902;49.638;11.070;2023-03-03T19:14:18;20.73;;;6.32;;
70444;SDS011;57902;49.638;11.070;2023-03-03T19:16:57;17.00;;;6.03;;
70444;SDS011;57902;49.638;11.070;2023-03-03T19:19:28;17.70;;;6.35;;
70444;SDS011;57902;49.638;11.070;2023-03-03T19:27:34;16.77;;;5.35;;
70444;SDS011;57902;49.638;11.070;2023-03-03T19:30:16;16.75;;;5.72;;
70444;SDS011;57902;49.638;11.070;2023-03-03T19:35:44;16.95;;;6.07;;
70444;SDS011;57902;49.638;11.070;2023-03-03T19:44:23;21.40;;;6.72;;
70444;SDS011;57902;49.638;11.070;2023-03-03T19:47:22;21.00;;;7.07;;
70444;SDS011;57902;49.638;11.070;2023-03-03T19:50:02;18.67;;;6.72;;
70444;SDS011;57902;49.638;11.070;2023-03-03T20:00:42;24.67;;;7.22;;
70444;SDS011;57902;49.638;11.070;2023-03-03T20:16:43;19.55;;;6.80;;
70444;SDS011;57902;49.638;11.070;2023-03-03T20:19:22;16.98;;;6.30;;
70444;SDS011;57902;49.638;11.070;2023-03-03T20:22:10;20.92;;;6.93;;
70444;SDS011;57902;49.638;11.070;2023-03-03T20:39:09;18.40;;;5.82;;
70444;SDS011;57902;49.638;11.070;2023-03-03T20:44:46;21.83;;;7.53;;
70444;SDS011;57902;49.638;11.070;2023-03-03T20:50:03;18.67;;;6.53;;
70444;SDS011;57902;49.638;11.070;2023-03-03T20:52:46;20.77;;;7.13;;
70444;SDS011;57902;49.638;11.070;2023-03-03T20:55:38;18.13;;;6.57;;
70444;SDS011;57902;49.638;11.070;2023-03-03T21:03:41;21.15;;;6.43;;
70444;SDS011;57902;49.638;11.070;2023-03-03T21:06:16;22.58;;;6.70;;
70444;SDS011;57902;49.638;11.070;2023-03-03T21:11:12;25.63;;;8.05;;
70444;SDS011;57902;49.638;11.070;2023-03-03T21:13:41;26.50;;;8.75;;
70444;SDS011;57902;49.638;11.070;2023-03-03T21:19:04;22.27;;;7.85;;
70444;SDS011;57902;49.638;11.070;2023-03-03T21:21:35;22.45;;;7.63;;
70444;SDS011;57902;49.638;11.070;2023-03-03T21:24:02;25.42;;;8.30;;